Time;durP1;ratioP1;P1;durP2;ratioP2;P2;SDS_P1;SDS_P2;PMS_P1;PMS_P2;Temp;Humidity;BMP_temperature;BMP_pressure;BME280_temperature;BME280_humidity;BME280_pressure;Samples;Min_cycle;Max_cycle;Signal;HPM_P1;HPM_P2
2021/07/16 00:01:56;;;;;;;20.50;14.83;;;16.90;99.90;;;;;;5076097;28;20267;-78
2021/07/16 00:04:21;;;;;;;18.90;14.80;;;16.80;99.90;;;;;;5076036;28;20254;-80
2021/07/16 00:06:48;;;;;;;22.53;14.03;;;16.90;99.90;;;;;;5075626;28;20212;-77
2021/07/16 00:09:15;;;;;;;22.43;15.40;;;16.90;99.90;;;;;;5075686;28;20242;-78
2021/07/16 00:11:40;;;;;;;17.70;13.97;;;16.90;99.90;;;;;;5076213;28;20176;-78
2021/07/16 00:14:06;;;;;;;20.67;15.60;;;16.80;99.90;;;;;;5076102;28;20168;-79
2021/07/16 00:16:32;;;;;;;21.53;15.67;;;16.80;99.90;;;;;;5076143;28;20210;-76
2021/07/16 00:18:59;;;;;;;20.00;13.47;;;16.80;99.90;;;;;;5076116;28;20189;-77
2021/07/16 00:21:24;;;;;;;18.60;14.37;;;16.80;99.90;;;;;;5075487;28;20707;-81
2021/07/16 00:23:50;;;;;;;20.30;14.07;;;16.80;99.90;;;;;;5076489;28;20211;-75
2021/07/16 00:26:16;;;;;;;17.57;13.80;;;16.80;99.90;;;;;;5076668;28;20172;-76
2021/07/16 00:28:43;;;;;;;24.00;14.60;;;16.80;99.90;;;;;;5081621;28;20175;-78
2021/07/16 00:31:09;;;;;;;21.23;13.57;;;16.80;99.90;;;;;;5085126;28;20186;-77
2021/07/16 00:33:35;;;;;;;20.73;14.97;;;16.80;99.90;;;;;;5090199;28;20188;-80
2021/07/16 00:36:02;;;;;;;20.77;14.27;;;16.80;99.90;;;;;;5082904;28;20168;-78
2021/07/16 00:38:27;;;;;;;18.20;13.90;;;16.80;99.90;;;;;;5076190;28;20259;-77
2021/07/16 00:40:53;;;;;;;21.00;14.27;;;16.80;99.90;;;;;;5074159;28;20302;-77
2021/07/16 00:43:27;;;;;;;19.03;13.97;;;16.80;99.90;;;;;;5075295;28;20594;-78
2021/07/16 00:45:52;;;;;;;20.57;14.87;;;16.80;99.90;;;;;;5074914;28;20172;-77
2021/07/16 00:48:18;;;;;;;20.13;14.90;;;16.80;99.90;;;;;;5075080;28;20172;-79
2021/07/16 00:50:44;;;;;;;18.20;14.57;;;16.80;99.90;;;;;;5074683;28;20172;-78
2021/07/16 00:53:14;;;;;;;19.20;14.37;;;16.80;99.90;;;;;;5074842;28;20172;-78
2021/07/16 00:55:41;;;;;;;23.87;15.43;;;16.80;99.90;;;;;;5074934;28;20616;-80
2021/07/16 00:58:07;;;;;;;20.27;14.70;;;16.80;99.90;;;;;;5074846;28;20624;-77
2021/07/16 01:00:33;;;;;;;21.50;15.50;;;16.90;99.90;;;;;;5074843;28;20696;-77
2021/07/16 01:02:59;;;;;;;17.63;13.77;;;16.90;99.90;;;;;;5074301;28;20624;-77
2021/07/16 01:05:25;;;;;;;19.57;15.17;;;16.90;99.90;;;;;;5074693;28;20175;-78
2021/07/16 01:07:52;;;;;;;21.57;14.53;;;16.90;99.90;;;;;;5074856;28;20172;-78
2021/07/16 01:10:20;;;;;;;18.83;14.33;;;16.90;99.90;;;;;;5074712;28;20540;-76
2021/07/16 01:12:51;;;;;;;20.10;14.00;;;16.90;99.90;;;;;;5074899;28;20686;-77
2021/07/16 01:15:18;;;;;;;20.33;14.40;;;16.90;99.90;;;;;;5073829;28;20657;-76
2021/07/16 01:17:45;;;;;;;19.37;14.07;;;16.90;99.90;;;;;;5073974;28;20256;-77
2021/07/16 01:20:14;;;;;;;16.37;13.70;;;16.90;99.90;;;;;;5074382;28;20212;-77
2021/07/16 01:22:43;;;;;;;16.07;14.03;;;16.90;99.90;;;;;;5074186;28;20247;-77
2021/07/16 01:25:15;;;;;;;21.53;13.97;;;16.90;99.90;;;;;;5074354;28;20647;-77
2021/07/16 01:27:44;;;;;;;16.40;13.77;;;16.90;99.90;;;;;;5074390;28;20193;-77
2021/07/16 01:30:11;;;;;;;18.77;14.60;;;17.00;99.90;;;;;;5074591;28;20188;-76
2021/07/16 01:32:37;;;;;;;18.23;14.10;;;17.00;99.90;;;;;;5074088;28;20168;-77
2021/07/16 01:35:05;;;;;;;20.60;14.50;;;17.00;99.90;;;;;;5074754;28;20172;-76
2021/07/16 01:37:31;;;;;;;20.50;14.37;;;17.10;99.90;;;;;;5075274;28;20172;-75
2021/07/16 01:40:00;;;;;;;16.00;13.97;;;17.00;99.90;;;;;;5076062;28;20214;-77
2021/07/16 01:42:37;;;;;;;16.43;14.20;;;17.00;99.90;;;;;;5075437;28;20185;-77
2021/07/16 01:45:13;;;;;;;18.70;13.40;;;17.00;99.90;;;;;;5074212;28;20260;-78
2021/07/16 01:47:43;;;;;;;16.27;13.73;;;17.10;99.90;;;;;;5073964;28;20168;-76
2021/07/16 01:50:09;;;;;;;17.00;13.50;;;17.00;99.90;;;;;;5074300;28;20174;-75
2021/07/16 01:52:35;;;;;;;18.20;14.30;;;17.00;99.90;;;;;;5073901;28;20169;-78
2021/07/16 01:55:03;;;;;;;17.87;12.97;;;16.90;99.90;;;;;;5073952;28;20540;-81
2021/07/16 01:57:29;;;;;;;20.57;13.83;;;16.80;99.90;;;;;;5073605;28;20693;-76
2021/07/16 01:59:55;;;;;;;17.07;13.77;;;16.80;99.90;;;;;;5073773;28;20238;-79
2021/07/16 02:02:21;;;;;;;19.37;12.90;;;16.90;99.90;;;;;;5073413;28;20181;-80
2021/07/16 02:04:46;;;;;;;18.57;13.90;;;16.80;99.90;;;;;;5073503;28;20234;-78
2021/07/16 02:07:12;;;;;;;18.13;12.60;;;16.80;99.90;;;;;;5073639;28;20172;-76
2021/07/16 02:09:38;;;;;;;18.83;14.13;;;16.70;99.90;;;;;;5073552;28;20246;-77
2021/07/16 02:12:04;;;;;;;23.07;14.20;;;16.80;99.90;;;;;;5072371;28;20201;-78
2021/07/16 02:14:30;;;;;;;21.13;15.17;;;16.80;99.90;;;;;;5072184;28;20169;-77
2021/07/16 02:17:00;;;;;;;18.47;13.73;;;16.80;99.90;;;;;;5073133;28;20593;-78
2021/07/16 02:19:26;;;;;;;20.13;14.90;;;16.90;99.90;;;;;;5076362;28;20145;-77
2021/07/16 02:21:52;;;;;;;20.20;15.07;;;16.80;99.90;;;;;;5079489;28;20537;-76
2021/07/16 02:24:17;;;;;;;22.50;14.70;;;16.80;99.90;;;;;;5073226;28;20189;-78
2021/07/16 02:26:43;;;;;;;20.53;15.07;;;16.80;99.90;;;;;;5073382;28;20172;-77
2021/07/16 02:29:09;;;;;;;23.30;16.50;;;16.80;99.90;;;;;;5073299;28;20715;-79
2021/07/16 02:31:35;;;;;;;19.97;15.63;;;16.80;99.90;;;;;;5073083;28;20247;-76
2021/07/16 02:34:01;;;;;;;22.30;16.13;;;16.80;99.90;;;;;;5073082;28;20636;-76
2021/07/16 02:36:26;;;;;;;21.87;15.97;;;16.80;99.90;;;;;;5073841;28;20168;-78
2021/07/16 02:38:52;;;;;;;20.87;15.70;;;16.80;99.90;;;;;;5073222;28;20176;-78
2021/07/16 02:41:18;;;;;;;25.97;15.57;;;16.70;99.90;;;;;;5075113;28;20219;-75
2021/07/16 02:43:44;;;;;;;23.83;16.00;;;16.60;99.90;;;;;;5078995;28;20164;-76
2021/07/16 02:46:12;;;;;;;27.73;16.33;;;16.70;99.90;;;;;;5076844;28;20195;-77
2021/07/16 02:48:41;;;;;;;26.33;16.73;;;16.70;99.90;;;;;;5074062;28;20160;-76
2021/07/16 02:51:07;;;;;;;27.23;17.17;;;16.60;99.90;;;;;;5074146;28;20694;-77
2021/07/16 02:53:36;;;;;;;25.27;16.13;;;16.50;99.90;;;;;;5073883;28;20165;-76
2021/07/16 02:56:01;;;;;;;27.63;16.40;;;16.50;99.90;;;;;;5075040;28;20175;-80
2021/07/16 02:58:27;;;;;;;29.03;17.03;;;16.40;99.90;;;;;;5079102;28;20625;-79
2021/07/16 03:00:53;;;;;;;29.73;16.00;;;16.40;99.90;;;;;;5077407;28;20207;-79
2021/07/16 03:03:18;;;;;;;26.60;16.23;;;16.40;99.90;;;;;;5077259;28;20625;-77
2021/07/16 03:05:44;;;;;;;23.23;15.60;;;16.40;99.90;;;;;;5076958;28;20293;-77
2021/07/16 03:08:12;;;;;;;29.63;16.70;;;16.40;99.90;;;;;;5076839;28;20164;-77
2021/07/16 03:10:42;;;;;;;23.00;16.13;;;16.30;99.90;;;;;;5076783;28;20267;-77
2021/07/16 03:13:11;;;;;;;25.90;16.83;;;16.30;99.90;;;;;;5077130;28;20517;-79
2021/07/16 03:15:38;;;;;;;23.47;15.60;;;16.40;99.90;;;;;;5077505;28;20173;-77
2021/07/16 03:18:05;;;;;;;27.03;15.70;;;16.30;99.90;;;;;;5076793;28;20203;-78
2021/07/16 03:20:33;;;;;;;25.93;16.03;;;16.30;99.90;;;;;;5076803;28;20286;-78
2021/07/16 03:23:00;;;;;;;28.67;16.67;;;16.30;99.90;;;;;;5080451;28;20192;-76
2021/07/16 03:25:27;;;;;;;25.37;16.93;;;16.20;99.90;;;;;;5089984;28;20172;-77
2021/07/16 03:27:54;;;;;;;27.50;17.10;;;16.20;99.90;;;;;;5090515;28;20164;-75
2021/07/16 03:30:22;;;;;;;25.87;15.77;;;16.30;99.90;;;;;;5088680;28;20151;-76
2021/07/16 03:32:49;;;;;;;24.10;15.80;;;16.30;99.90;;;;;;5087768;28;20175;-76
2021/07/16 03:35:15;;;;;;;28.63;16.63;;;16.20;99.90;;;;;;5088446;28;20172;-76
2021/07/16 03:37:42;;;;;;;23.20;14.40;;;16.20;99.90;;;;;;5078783;28;20630;-77
2021/07/16 03:40:12;;;;;;;27.00;16.47;;;16.30;99.90;;;;;;5077286;28;20206;-78
2021/07/16 03:42:40;;;;;;;28.40;16.07;;;16.30;99.90;;;;;;5077159;28;20176;-78
2021/07/16 03:45:12;;;;;;;26.43;15.97;;;16.20;99.90;;;;;;5075682;28;20172;-79
2021/07/16 03:47:38;;;;;;;25.00;15.30;;;16.20;99.90;;;;;;5077808;28;20156;-78
2021/07/16 03:50:05;;;;;;;20.10;14.67;;;16.20;99.90;;;;;;5077607;28;20229;-80
2021/07/16 03:52:30;;;;;;;27.70;16.00;;;16.20;99.90;;;;;;5077498;28;20188;-79
2021/07/16 03:54:56;;;;;;;32.23;16.50;;;16.20;99.90;;;;;;5076688;28;20181;-77
2021/07/16 03:57:22;;;;;;;22.97;15.00;;;16.20;99.90;;;;;;5075813;28;20643;-77
2021/07/16 03:59:47;;;;;;;22.63;14.47;;;16.10;99.90;;;;;;5075869;28;20168;-79
2021/07/16 04:02:13;;;;;;;28.23;15.10;;;16.20;99.90;;;;;;5075980;28;20175;-77
2021/07/16 04:04:39;;;;;;;22.43;15.47;;;16.30;99.90;;;;;;5075759;28;20168;-76
2021/07/16 04:07:05;;;;;;;25.13;14.53;;;16.20;99.90;;;;;;5075484;28;20172;-78
2021/07/16 04:09:32;;;;;;;24.77;14.50;;;16.20;99.90;;;;;;5073682;28;20188;-77
2021/07/16 04:12:09;;;;;;;23.67;14.60;;;16.30;99.90;;;;;;5075801;28;20236;-77
2021/07/16 04:14:37;;;;;;;24.80;14.50;;;16.10;99.90;;;;;;5075764;28;20168;-78
2021/07/16 04:17:08;;;;;;;24.53;14.63;;;16.10;99.90;;;;;;5075917;28;20176;-76
2021/07/16 04:19:34;;;;;;;20.10;13.53;;;16.10;99.90;;;;;;5084952;28;20165;-78
2021/07/16 04:22:00;;;;;;;21.33;13.70;;;16.10;99.90;;;;;;5087997;28;20194;-77
2021/07/16 04:24:26;;;;;;;23.33;13.30;;;16.10;99.90;;;;;;5086462;28;20173;-78
2021/07/16 04:26:51;;;;;;;22.47;13.70;;;16.10;99.90;;;;;;5087320;28;20195;-78
2021/07/16 04:29:17;;;;;;;20.53;14.80;;;16.10;99.90;;;;;;5080627;28;20700;-79
2021/07/16 04:31:43;;;;;;;21.60;14.30;;;16.10;99.90;;;;;;5076853;28;20731;-77
2021/07/16 04:34:08;;;;;;;23.77;13.70;;;16.10;99.90;;;;;;5076140;28;20643;-77
2021/07/16 04:36:34;;;;;;;20.70;13.30;;;16.10;99.90;;;;;;5075665;28;20179;-77
2021/07/16 04:39:00;;;;;;;19.40;12.20;;;16.10;99.90;;;;;;5075786;28;20531;-78
2021/07/16 04:41:25;;;;;;;19.07;13.10;;;16.20;99.90;;;;;;5074667;28;20215;-77
2021/07/16 04:43:52;;;;;;;16.43;11.50;;;16.20;99.90;;;;;;5076557;28;20183;-78
2021/07/16 04:46:17;;;;;;;21.00;11.73;;;16.40;99.90;;;;;;5073876;28;20188;-76
2021/07/16 04:48:43;;;;;;;19.47;11.27;;;16.10;99.90;;;;;;5075297;28;20161;-79
2021/07/16 04:51:09;;;;;;;19.13;11.73;;;16.20;99.90;;;;;;5075255;28;20176;-76
2021/07/16 04:53:34;;;;;;;20.30;11.83;;;16.20;99.90;;;;;;5075295;28;20175;-79
2021/07/16 04:56:00;;;;;;;19.17;12.17;;;16.20;99.90;;;;;;5073846;28;20176;-76
2021/07/16 04:58:26;;;;;;;17.80;10.80;;;16.20;99.90;;;;;;5075773;28;20625;-78
2021/07/16 05:00:51;;;;;;;17.17;11.13;;;16.30;99.90;;;;;;5074761;28;20243;-79
2021/07/16 05:03:17;;;;;;;18.23;10.70;;;16.10;99.90;;;;;;5074668;28;20172;-78
2021/07/16 05:05:42;;;;;;;19.20;11.17;;;16.10;99.90;;;;;;5074634;28;20169;-77
2021/07/16 05:08:08;;;;;;;20.07;11.20;;;16.20;99.90;;;;;;5074601;28;20172;-77
2021/07/16 05:10:34;;;;;;;18.40;10.90;;;16.30;99.90;;;;;;5074613;28;20641;-79
2021/07/16 05:12:59;;;;;;;17.80;10.97;;;16.30;99.90;;;;;;5074936;28;20533;-77
2021/07/16 05:15:25;;;;;;;17.87;10.33;;;16.40;99.90;;;;;;5074599;28;20652;-79
2021/07/16 05:17:51;;;;;;;17.20;10.07;;;16.30;99.90;;;;;;5075608;28;20199;-79
2021/07/16 05:20:16;;;;;;;15.63;10.87;;;16.30;99.90;;;;;;5073503;28;20192;-79
2021/07/16 05:22:43;;;;;;;16.43;10.17;;;16.40;99.90;;;;;;5074640;28;20188;-77
2021/07/16 05:25:09;;;;;;;18.07;10.67;;;16.30;99.90;;;;;;5074937;28;20203;-80
2021/07/16 05:27:35;;;;;;;17.10;10.30;;;16.20;99.90;;;;;;5074180;28;20218;-79
2021/07/16 05:30:01;;;;;;;16.50;9.83;;;16.30;99.90;;;;;;5077367;28;20286;-76
2021/07/16 05:32:26;;;;;;;18.00;10.20;;;16.30;99.90;;;;;;5085637;28;20167;-77
2021/07/16 05:34:52;;;;;;;15.20;10.03;;;16.30;99.90;;;;;;5075459;28;20593;-77
2021/07/16 05:37:17;;;;;;;20.70;10.27;;;16.20;99.90;;;;;;5074155;28;20176;-79
2021/07/16 05:39:43;;;;;;;17.50;10.00;;;16.20;99.90;;;;;;5073729;28;20535;-77
2021/07/16 05:42:09;;;;;;;19.23;10.73;;;16.20;99.90;;;;;;5073870;28;20324;-76
2021/07/16 05:44:34;;;;;;;15.17;9.50;;;16.30;99.90;;;;;;5074202;28;20613;-77
2021/07/16 05:47:00;;;;;;;16.07;10.53;;;16.30;99.90;;;;;;5074104;28;20531;-80
2021/07/16 05:49:26;;;;;;;18.10;9.87;;;16.40;99.90;;;;;;5074303;28;20214;-79
2021/07/16 05:51:52;;;;;;;20.53;11.00;;;16.40;99.90;;;;;;5075239;28;20181;-77
2021/07/16 05:54:20;;;;;;;20.57;10.33;;;16.40;99.90;;;;;;5083051;28;20581;-80
2021/07/16 05:56:46;;;;;;;19.53;10.40;;;16.30;99.90;;;;;;5079139;28;20624;-80
2021/07/16 05:59:12;;;;;;;20.40;10.43;;;16.30;99.90;;;;;;5073965;28;20185;-78
2021/07/16 06:01:38;;;;;;;17.00;10.40;;;16.30;99.90;;;;;;5073914;28;20666;-77
2021/07/16 06:04:09;;;;;;;19.27;10.50;;;16.20;99.90;;;;;;5073622;28;20600;-77
2021/07/16 06:06:37;;;;;;;17.57;8.83;;;16.30;99.90;;;;;;5073656;28;20164;-77
2021/07/16 06:09:05;;;;;;;17.30;10.73;;;16.20;99.90;;;;;;5073102;28;20163;-78
2021/07/16 06:11:32;;;;;;;17.80;10.43;;;16.30;99.90;;;;;;5073735;28;20174;-79
2021/07/16 06:13:58;;;;;;;19.87;10.00;;;16.40;99.90;;;;;;5074008;28;20224;-77
2021/07/16 06:16:23;;;;;;;16.33;9.57;;;16.40;99.90;;;;;;5074073;28;20169;-77
2021/07/16 06:18:49;;;;;;;17.77;9.17;;;16.40;99.90;;;;;;5073604;28;20168;-79
2021/07/16 06:21:14;;;;;;;16.93;10.60;;;16.30;99.90;;;;;;5073806;28;20285;-79
2021/07/16 06:23:40;;;;;;;18.90;9.80;;;16.50;99.90;;;;;;5073582;28;20230;-79
2021/07/16 06:26:06;;;;;;;13.80;8.63;;;16.40;99.90;;;;;;5073965;28;20263;-77
2021/07/16 06:28:31;;;;;;;12.87;9.27;;;16.40;99.90;;;;;;5074137;28;20164;-79
2021/07/16 06:30:57;;;;;;;18.27;9.23;;;16.40;99.90;;;;;;5074204;28;20161;-76
2021/07/16 06:33:23;;;;;;;15.37;8.87;;;16.50;99.90;;;;;;5091399;28;20281;-76
2021/07/16 06:35:49;;;;;;;20.40;9.97;;;16.40;99.90;;;;;;5090678;28;20637;-76
2021/07/16 06:38:15;;;;;;;19.70;9.00;;;16.50;99.90;;;;;;5074927;28;20573;-77
2021/07/16 06:40:41;;;;;;;18.97;8.77;;;16.50;99.90;;;;;;5074050;28;20223;-77
2021/07/16 06:43:19;;;;;;;16.03;8.40;;;16.50;99.90;;;;;;5073508;28;20255;-78
2021/07/16 06:45:44;;;;;;;20.27;9.00;;;16.60;99.90;;;;;;5073005;28;20255;-76
2021/07/16 06:48:10;;;;;;;12.20;8.37;;;16.50;99.90;;;;;;5073017;28;20203;-78
2021/07/16 06:50:35;;;;;;;16.00;8.73;;;16.50;99.90;;;;;;5072891;28;20701;-80
2021/07/16 06:53:01;;;;;;;15.03;9.77;;;16.60;99.90;;;;;;5072540;28;20180;-77
2021/07/16 06:55:27;;;;;;;16.47;9.10;;;16.70;99.90;;;;;;5072563;28;20247;-78
2021/07/16 06:57:52;;;;;;;18.40;9.50;;;16.80;99.90;;;;;;5072600;28;20208;-76
2021/07/16 07:00:18;;;;;;;19.90;8.63;;;16.80;99.90;;;;;;5072382;28;20200;-77
2021/07/16 07:02:44;;;;;;;16.00;8.97;;;16.60;99.90;;;;;;5072782;28;20226;-77
2021/07/16 07:05:10;;;;;;;18.10;8.67;;;16.70;99.90;;;;;;5072529;28;20176;-77
2021/07/16 07:07:36;;;;;;;17.43;8.53;;;16.80;99.90;;;;;;5072678;28;20215;-79
2021/07/16 07:10:02;;;;;;;19.07;8.67;;;16.90;99.90;;;;;;5072440;28;20172;-77
2021/07/16 07:12:27;;;;;;;15.57;8.67;;;16.80;99.90;;;;;;5072768;28;20628;-77
2021/07/16 07:14:54;;;;;;;13.97;7.70;;;16.80;99.90;;;;;;5073030;28;20248;-78
2021/07/16 07:17:20;;;;;;;13.23;8.20;;;16.80;99.90;;;;;;5073288;28;20163;-79
2021/07/16 07:19:47;;;;;;;17.53;8.93;;;16.80;99.90;;;;;;5072657;28;20165;-80
2021/07/16 07:22:12;;;;;;;17.33;8.63;;;16.80;99.90;;;;;;5071325;28;20176;-76
2021/07/16 07:24:38;;;;;;;19.97;8.63;;;16.80;99.90;;;;;;5073008;28;20169;-79
2021/07/16 07:27:04;;;;;;;16.23;8.80;;;16.90;99.90;;;;;;5072988;28;20162;-76
2021/07/16 07:29:33;;;;;;;17.50;7.80;;;16.90;99.90;;;;;;5072547;28;20185;-78
2021/07/16 07:31:59;;;;;;;17.63;9.47;;;16.80;99.90;;;;;;5072357;28;20515;-78
2021/07/16 07:34:25;;;;;;;21.37;8.20;;;16.90;99.90;;;;;;5072244;28;20175;-79
2021/07/16 07:36:52;;;;;;;14.03;7.60;;;17.00;99.90;;;;;;5072243;28;20177;-79
2021/07/16 07:39:18;;;;;;;18.80;8.07;;;17.10;99.90;;;;;;5071564;28;20655;-78
2021/07/16 07:41:47;;;;;;;18.30;8.33;;;17.20;99.90;;;;;;5072257;28;20755;-78
2021/07/16 07:44:17;;;;;;;19.70;8.00;;;17.30;99.90;;;;;;5074654;28;20161;-78
2021/07/16 07:46:44;;;;;;;17.60;8.20;;;17.40;99.90;;;;;;5075879;28;20190;-80
2021/07/16 07:49:11;;;;;;;16.03;7.70;;;17.50;99.90;;;;;;5075769;28;20170;-78
2021/07/16 07:51:38;;;;;;;17.17;7.63;;;17.50;99.80;;;;;;5075776;28;20172;-80
2021/07/16 07:54:04;;;;;;;16.23;7.60;;;17.30;99.90;;;;;;5075953;28;20168;-78
2021/07/16 07:56:31;;;;;;;15.93;7.00;;;17.40;99.90;;;;;;5075690;28;20632;-78
2021/07/16 07:58:58;;;;;;;18.50;8.10;;;17.30;98.90;;;;;;5075842;28;20175;-78
2021/07/16 08:01:24;;;;;;;15.07;7.80;;;17.20;99.90;;;;;;5075848;28;20195;-79
2021/07/16 08:03:50;;;;;;;18.97;7.63;;;17.30;99.90;;;;;;5076156;28;20165;-80
2021/07/16 08:06:16;;;;;;;14.30;7.47;;;17.10;99.90;;;;;;5076002;28;20187;-77
2021/07/16 08:08:42;;;;;;;16.07;8.53;;;17.10;99.70;;;;;;5076963;28;20169;-76
2021/07/16 08:11:08;;;;;;;15.57;8.07;;;17.20;99.70;;;;;;5081432;28;20187;-76
2021/07/16 08:13:34;;;;;;;13.43;7.17;;;17.30;99.50;;;;;;5081185;28;20168;-76
2021/07/16 08:16:01;;;;;;;17.07;7.63;;;17.20;99.90;;;;;;5085173;28;20176;-78
2021/07/16 08:18:28;;;;;;;16.57;7.47;;;17.20;99.80;;;;;;5080102;28;20203;-79
2021/07/16 08:20:56;;;;;;;14.73;6.93;;;17.10;99.90;;;;;;5081755;28;20196;-77
2021/07/16 08:23:22;;;;;;;16.27;6.70;;;17.10;99.90;;;;;;5082269;28;20267;-78
2021/07/16 08:25:47;;;;;;;14.90;6.73;;;17.10;99.90;;;;;;5080151;28;20209;-79
2021/07/16 08:28:13;;;;;;;13.80;6.20;;;17.10;99.90;;;;;;5077076;28;20510;-77
2021/07/16 08:30:39;;;;;;;14.97;6.77;;;17.00;99.90;;;;;;5076012;28;20165;-78
2021/07/16 08:33:08;;;;;;;18.80;7.57;;;17.10;99.90;;;;;;5075530;28;20499;-77
2021/07/16 08:35:34;;;;;;;15.97;7.20;;;17.10;99.90;;;;;;5075551;28;20168;-77
2021/07/16 08:38:00;;;;;;;19.17;6.63;;;17.10;99.90;;;;;;5076453;28;20218;-79
2021/07/16 08:40:25;;;;;;;19.73;7.63;;;17.20;99.90;;;;;;5076063;28;20223;-80
2021/07/16 08:42:51;;;;;;;16.23;6.33;;;17.30;99.40;;;;;;5075778;28;20180;-80
2021/07/16 08:45:18;;;;;;;18.23;7.13;;;17.20;99.20;;;;;;5078535;28;20175;-78
2021/07/16 08:47:44;;;;;;;17.67;7.40;;;17.30;99.70;;;;;;5081725;28;20269;-77
2021/07/16 08:50:12;;;;;;;15.67;6.67;;;17.30;99.60;;;;;;5075761;28;20554;-77
2021/07/16 08:52:40;;;;;;;16.77;6.70;;;17.20;98.90;;;;;;5075973;28;20161;-79
2021/07/16 08:55:08;;;;;;;19.20;7.50;;;17.20;99.30;;;;;;5075929;28;20171;-78
2021/07/16 08:57:34;;;;;;;18.80;6.90;;;17.20;99.90;;;;;;5075786;28;20168;-78
2021/07/16 08:59:59;;;;;;;16.00;6.57;;;17.20;99.80;;;;;;5074946;28;20160;-78
2021/07/16 09:02:28;;;;;;;18.77;7.27;;;17.20;99.50;;;;;;5073156;28;20628;-78
2021/07/16 09:04:59;;;;;;;13.63;6.20;;;17.30;99.50;;;;;;5073453;28;20184;-79
2021/07/16 09:07:25;;;;;;;16.30;6.20;;;17.40;98.80;;;;;;5075723;28;20180;-77
2021/07/16 09:09:51;;;;;;;14.80;6.10;;;17.40;98.50;;;;;;5080907;28;20582;-78
2021/07/16 09:12:16;;;;;;;16.47;6.87;;;17.40;97.60;;;;;;5079134;28;20176;-79
2021/07/16 09:14:42;;;;;;;17.03;6.50;;;17.50;97.90;;;;;;5074797;28;20255;-77
2021/07/16 09:17:10;;;;;;;19.07;6.83;;;17.50;97.50;;;;;;5074741;28;20195;-78
2021/07/16 09:19:45;;;;;;;15.40;6.90;;;17.50;97.30;;;;;;5074430;28;20160;-79
2021/07/16 09:22:12;;;;;;;16.07;6.90;;;17.50;97.50;;;;;;5074355;28;20290;-78
2021/07/16 09:24:48;;;;;;;15.93;6.90;;;17.50;97.90;;;;;;5074941;28;20176;-77
2021/07/16 09:27:43;;;;;;;13.03;6.23;;;17.70;98.40;;;;;;5074643;28;20302;-81
2021/07/16 09:30:11;;;;;;;14.73;7.00;;;17.70;96.50;;;;;;5074730;28;20181;-78
2021/07/16 09:32:41;;;;;;;15.30;5.87;;;17.60;96.20;;;;;;5073458;28;20555;-79
2021/07/16 09:35:07;;;;;;;13.37;6.17;;;17.60;94.90;;;;;;5073813;28;20362;-77
2021/07/16 09:37:46;;;;;;;18.67;6.13;;;17.60;95.70;;;;;;5073884;28;20577;-77
2021/07/16 09:40:12;;;;;;;15.23;5.77;;;17.60;95.40;;;;;;5073339;28;20260;-78
2021/07/16 09:42:37;;;;;;;13.37;6.07;;;17.60;95.90;;;;;;5073740;28;20658;-77
2021/07/16 09:45:04;;;;;;;19.20;6.50;;;17.60;95.80;;;;;;5073683;28;20252;-79
2021/07/16 09:47:30;;;;;;;13.97;6.20;;;17.60;96.60;;;;;;5074104;28;20181;-78
2021/07/16 09:50:10;;;;;;;17.90;6.93;;;17.80;96.00;;;;;;5074437;28;20167;-77
2021/07/16 09:52:36;;;;;;;14.97;6.57;;;17.70;95.10;;;;;;5074317;28;20168;-80
2021/07/16 09:55:21;;;;;;;19.37;6.57;;;17.80;95.20;;;;;;5074432;28;20667;-77
2021/07/16 09:57:55;;;;;;;14.50;5.50;;;17.80;94.00;;;;;;5072862;28;20176;-78
2021/07/16 10:00:23;;;;;;;17.17;6.47;;;17.80;94.10;;;;;;5074020;28;20681;-78
2021/07/16 10:02:51;;;;;;;15.53;6.00;;;17.90;94.40;;;;;;5074279;28;20168;-80
2021/07/16 10:05:17;;;;;;;17.40;5.67;;;17.90;94.00;;;;;;5073784;28;20218;-78
2021/07/16 10:07:44;;;;;;;18.17;6.30;;;17.90;94.30;;;;;;5073487;28;20164;-77
2021/07/16 10:10:13;;;;;;;17.50;5.60;;;17.80;94.50;;;;;;5073884;28;20164;-79
2021/07/16 10:12:41;;;;;;;15.63;5.90;;;17.90;94.70;;;;;;5073971;28;20177;-77
2021/07/16 10:15:12;;;;;;;16.97;6.03;;;18.00;93.90;;;;;;5078875;28;20194;-77
2021/07/16 10:17:38;;;;;;;17.27;5.97;;;17.90;93.50;;;;;;5080294;28;20534;-77
2021/07/16 10:20:09;;;;;;;19.17;6.10;;;17.90;94.20;;;;;;5080152;28;20253;-78
2021/07/16 10:22:41;;;;;;;17.33;6.47;;;17.80;94.50;;;;;;5077062;28;20197;-79
2021/07/16 10:25:09;;;;;;;19.97;6.20;;;17.70;94.90;;;;;;5074139;28;20168;-79
2021/07/16 10:27:36;;;;;;;17.47;5.93;;;17.70;95.90;;;;;;5074148;28;20186;-77
2021/07/16 10:30:11;;;;;;;13.87;5.97;;;17.70;95.60;;;;;;5073437;28;20163;-79
2021/07/16 10:32:47;;;;;;;20.53;6.20;;;17.70;95.00;;;;;;5073101;28;20172;-79
2021/07/16 10:35:27;;;;;;;16.87;5.77;;;17.80;94.50;;;;;;5072865;28;20168;-79
2021/07/16 10:37:56;;;;;;;16.73;5.53;;;17.70;94.30;;;;;;5071935;28;20180;-76
2021/07/16 10:40:40;;;;;;;16.20;6.07;;;17.70;95.20;;;;;;5073654;28;20208;-82
2021/07/16 10:43:08;;;;;;;15.57;6.07;;;17.70;95.20;;;;;;5073142;28;20632;-80
2021/07/16 10:45:39;;;;;;;12.33;5.97;;;17.70;94.90;;;;;;5073482;28;20247;-81
2021/07/16 10:48:38;;;;;;;17.93;6.10;;;17.80;95.50;;;;;;5071940;28;20184;-78
2021/07/16 10:51:06;;;;;;;16.10;5.60;;;17.90;95.00;;;;;;5072067;28;20189;-80
2021/07/16 10:53:31;;;;;;;22.27;6.67;;;17.90;95.30;;;;;;5072888;28;20233;-79
2021/07/16 10:55:57;;;;;;;16.77;6.03;;;18.00;95.80;;;;;;5073022;28;20632;-78
2021/07/16 10:58:24;;;;;;;15.40;5.60;;;18.00;95.50;;;;;;5072418;28;20231;-77
2021/07/16 11:00:59;;;;;;;14.80;5.80;;;18.00;95.10;;;;;;5072447;28;20335;-77
2021/07/16 11:03:52;;;;;;;23.07;6.13;;;17.90;93.30;;;;;;5072792;28;20171;-79
2021/07/16 11:06:20;;;;;;;18.03;5.57;;;17.80;94.60;;;;;;5072972;28;20593;-79
2021/07/16 11:08:47;;;;;;;20.90;6.10;;;17.80;94.30;;;;;;5072274;28;20268;-81
2021/07/16 11:11:17;;;;;;;16.83;5.60;;;17.90;94.50;;;;;;5072654;28;20196;-78
2021/07/16 11:13:49;;;;;;;15.77;6.37;;;17.80;94.80;;;;;;5072345;28;20242;-79
2021/07/16 11:16:15;;;;;;;14.03;6.00;;;17.90;94.30;;;;;;5072583;28;20601;-79
2021/07/16 11:19:06;;;;;;;14.23;5.73;;;17.90;94.30;;;;;;5077848;28;20196;-78
2021/07/16 11:21:47;;;;;;;18.10;6.50;;;17.90;93.60;;;;;;5077770;28;20253;-77
2021/07/16 11:24:16;;;;;;;21.20;6.00;;;17.90;93.10;;;;;;5078322;28;20267;-78
2021/07/16 11:26:49;;;;;;;20.83;6.23;;;17.80;94.30;;;;;;5088111;28;20176;-77
2021/07/16 11:29:15;;;;;;;17.60;5.63;;;17.80;94.60;;;;;;5088943;28;20174;-76
2021/07/16 11:31:41;;;;;;;22.57;6.73;;;17.80;93.90;;;;;;5083151;28;20160;-77
2021/07/16 11:34:13;;;;;;;19.20;6.70;;;17.80;94.30;;;;;;5078488;28;20175;-77
2021/07/16 11:36:51;;;;;;;19.90;6.20;;;17.70;94.00;;;;;;5079012;28;20162;-80
2021/07/16 11:39:27;;;;;;;16.30;5.70;;;17.90;94.70;;;;;;5079722;28;20176;-79
2021/07/16 11:41:52;;;;;;;14.13;5.13;;;17.90;93.70;;;;;;5081386;28;20220;-77
2021/07/16 11:44:32;;;;;;;16.27;5.90;;;17.90;93.90;;;;;;5080458;28;20180;-78
2021/07/16 11:47:12;;;;;;;20.67;6.57;;;17.80;95.10;;;;;;5084173;28;20178;-79
2021/07/16 11:49:43;;;;;;;18.80;5.77;;;18.00;95.00;;;;;;5076878;28;20213;-81
2021/07/16 11:52:09;;;;;;;15.63;6.07;;;18.10;94.40;;;;;;5076350;28;20168;-77
2021/07/16 11:54:35;;;;;;;15.97;5.87;;;18.10;93.30;;;;;;5074502;28;20293;-79
2021/07/16 11:57:00;;;;;;;18.10;5.57;;;18.20;92.80;;;;;;5075554;28;20173;-80
2021/07/16 11:59:28;;;;;;;16.07;5.60;;;18.10;92.80;;;;;;5079729;28;20173;-78
2021/07/16 12:02:03;;;;;;;14.50;6.00;;;18.20;92.80;;;;;;5083174;28;20204;-77
2021/07/16 12:04:29;;;;;;;15.57;5.60;;;18.10;92.20;;;;;;5086980;28;20170;-81
2021/07/16 12:06:55;;;;;;;15.20;6.53;;;18.00;92.00;;;;;;5086896;28;20300;-78
2021/07/16 12:09:45;;;;;;;17.23;6.33;;;18.10;92.10;;;;;;5089860;28;20675;-80
2021/07/16 12:12:16;;;;;;;16.40;6.40;;;18.30;91.40;;;;;;5081735;28;20197;-79
2021/07/16 12:14:52;;;;;;;14.33;5.77;;;18.30;90.30;;;;;;5080634;28;20164;-77
2021/07/16 12:17:24;;;;;;;15.80;6.60;;;18.20;91.40;;;;;;5075791;28;20211;-80
2021/07/16 12:19:51;;;;;;;17.90;6.57;;;18.40;92.50;;;;;;5075950;28;20256;-77
2021/07/16 12:22:20;;;;;;;20.80;7.13;;;18.50;91.00;;;;;;5075277;28;20283;-78
2021/07/16 12:24:46;;;;;;;16.70;6.10;;;18.60;90.70;;;;;;5075386;28;20192;-77
2021/07/16 12:27:13;;;;;;;16.30;6.00;;;18.60;88.10;;;;;;5075102;28;20199;-78
2021/07/16 12:29:40;;;;;;;20.40;7.07;;;18.60;90.10;;;;;;5073488;28;20612;-78
2021/07/16 12:32:07;;;;;;;14.70;6.93;;;18.70;90.60;;;;;;5075046;28;20194;-77
2021/07/16 12:34:34;;;;;;;15.33;6.07;;;18.80;88.70;;;;;;5077091;28;20256;-77
2021/07/16 12:37:16;;;;;;;17.20;6.80;;;18.70;85.30;;;;;;5078998;28;20194;-79